Time;durP1;ratioP1;P1;durP2;ratioP2;P2;SDS_P1;SDS_P2;PMS_P1;PMS_P2;Temp;Humidity;BMP_temperature;BMP_pressure;BME280_temperature;BME280_humidity;BME280_pressure;Samples;Min_cycle;Max_cycle;Signal;HPM_P1;HPM_P2
2022/08/05 00:02:04;;;;;;;7.53;5.07;;;23.40;66.80;;;;;;5034103;28;20556;-11
2022/08/05 00:04:30;;;;;;;8.23;6.03;;;23.40;66.80;;;;;;5033547;28;20028;-11
2022/08/05 00:06:56;;;;;;;7.03;5.60;;;23.30;66.80;;;;;;5033770;28;20025;-11
2022/08/05 00:09:22;;;;;;;6.95;5.82;;;23.30;66.90;;;;;;5034610;28;20477;-11
2022/08/05 00:11:48;;;;;;;8.30;5.93;;;23.20;67.10;;;;;;5033606;28;20040;-12
2022/08/05 00:14:14;;;;;;;7.70;6.30;;;23.10;67.30;;;;;;5033670;28;20091;-10
2022/08/05 00:16:40;;;;;;;8.50;6.57;;;23.10;67.60;;;;;;5033576;28;20496;-11
2022/08/05 00:19:06;;;;;;;8.38;7.07;;;23.00;68.10;;;;;;5034290;28;20121;-10
2022/08/05 00:21:32;;;;;;;10.70;7.25;;;23.00;68.30;;;;;;5033509;28;20389;-11
2022/08/05 00:23:59;;;;;;;9.18;6.68;;;22.90;68.40;;;;;;5033830;28;20149;-11
2022/08/05 00:26:25;;;;;;;12.20;8.60;;;22.90;68.40;;;;;;5033554;28;20022;-11
2022/08/05 00:28:52;;;;;;;13.35;9.20;;;22.80;68.90;;;;;;5033752;28;20061;-12
2022/08/05 00:31:18;;;;;;;7.80;6.43;;;22.80;69.00;;;;;;5033744;28;20036;-11
2022/08/05 00:33:44;;;;;;;8.65;6.32;;;22.80;69.20;;;;;;5033248;28;20121;-11
2022/08/05 00:36:10;;;;;;;8.07;6.40;;;22.70;69.00;;;;;;5033206;28;20116;-11
2022/08/05 00:38:38;;;;;;;8.68;7.28;;;22.70;69.10;;;;;;5033371;28;20033;-10
2022/08/05 00:41:06;;;;;;;8.38;7.00;;;22.70;69.50;;;;;;5033210;28;20397;-11
2022/08/05 00:43:35;;;;;;;9.20;6.88;;;22.60;69.80;;;;;;5033459;28;20036;-11
2022/08/05 00:46:02;;;;;;;9.93;6.82;;;22.50;69.80;;;;;;5033651;28;20072;-11
2022/08/05 00:48:28;;;;;;;10.45;7.10;;;22.50;69.90;;;;;;5033182;28;20025;-11
2022/08/05 00:50:54;;;;;;;7.60;6.45;;;22.50;70.10;;;;;;5032711;28;20179;-11
2022/08/05 00:53:22;;;;;;;9.82;7.10;;;22.40;69.90;;;;;;5033407;28;20116;-10
2022/08/05 00:55:49;;;;;;;11.63;6.97;;;22.40;70.10;;;;;;5032792;28;20054;-12
2022/08/05 00:58:17;;;;;;;11.90;9.07;;;22.40;70.30;;;;;;5032860;28;20389;-11
2022/08/05 01:00:43;;;;;;;8.95;7.20;;;22.40;70.50;;;;;;5033318;28;20029;-11
2022/08/05 01:03:10;;;;;;;9.75;7.50;;;22.30;71.00;;;;;;5032980;28;20404;-11
2022/08/05 01:05:37;;;;;;;9.65;6.45;;;22.20;70.80;;;;;;5032920;28;20022;-11
2022/08/05 01:08:03;;;;;;;9.85;6.78;;;22.20;70.60;;;;;;5033279;28;20104;-10
2022/08/05 01:11:05;;;;;;;9.85;7.05;;;22.20;70.60;;;;;;5032827;28;20075;-12
2022/08/05 01:13:52;;;;;;;8.18;6.72;;;22.20;71.50;;;;;;5030412;28;20088;-11
2022/08/05 01:16:48;;;;;;;8.18;7.20;;;22.10;72.50;;;;;;5032811;28;20036;-12
2022/08/05 01:19:45;;;;;;;8.73;7.50;;;22.10;71.60;;;;;;5033073;28;20021;-11
2022/08/05 01:22:25;;;;;;;10.40;8.18;;;22.00;71.50;;;;;;5027436;28;20026;-11
2022/08/05 01:25:28;;;;;;;8.07;6.68;;;21.90;71.60;;;;;;5032859;28;20026;-11
2022/08/05 01:28:21;;;;;;;9.97;7.33;;;21.90;71.60;;;;;;5032836;28;20083;-12
2022/08/05 01:31:32;;;;;;;10.30;8.02;;;21.90;71.70;;;;;;5033128;28;20046;-11
2022/08/05 01:34:09;;;;;;;10.25;7.88;;;21.90;71.80;;;;;;5019992;28;20040;-10
2022/08/05 01:36:41;;;;;;;8.93;7.60;;;21.80;72.00;;;;;;5033128;28;20033;-11
2022/08/05 01:39:08;;;;;;;10.43;7.47;;;21.80;72.20;;;;;;5032665;28;20022;-10
2022/08/05 01:41:36;;;;;;;10.30;7.82;;;21.70;72.10;;;;;;5031452;28;20583;-11
2022/08/05 01:44:02;;;;;;;8.63;7.18;;;21.70;72.60;;;;;;5032841;28;20482;-11
2022/08/05 01:46:31;;;;;;;12.25;8.10;;;21.60;72.60;;;;;;5032547;28;20108;-11
2022/08/05 01:48:59;;;;;;;11.45;8.85;;;21.60;73.00;;;;;;5032819;28;20032;-11
2022/08/05 01:51:28;;;;;;;9.38;7.15;;;21.60;74.30;;;;;;5032889;28;20507;-11
2022/08/05 01:53:57;;;;;;;9.75;7.47;;;21.50;73.40;;;;;;5032320;28;20477;-13
2022/08/05 01:56:25;;;;;;;10.45;7.65;;;21.50;73.60;;;;;;5033044;28;20417;-11
2022/08/05 01:58:53;;;;;;;11.02;7.40;;;21.40;73.50;;;;;;5032474;28;20099;-11
2022/08/05 02:01:21;;;;;;;9.80;8.25;;;21.40;73.60;;;;;;5032840;28;20026;-11
2022/08/05 02:03:50;;;;;;;11.13;8.15;;;21.40;73.70;;;;;;5035419;28;20026;-11
2022/08/05 02:06:17;;;;;;;9.98;7.95;;;21.40;73.80;;;;;;5035844;28;20439;-11
2022/08/05 02:08:43;;;;;;;11.48;9.55;;;21.40;73.80;;;;;;5036248;28;20029;-11
2022/08/05 02:11:14;;;;;;;11.82;8.23;;;21.40;74.10;;;;;;5035956;28;20048;-10
2022/08/05 02:14:00;;;;;;;9.90;7.93;;;21.40;74.30;;;;;;5036270;28;20025;-11
2022/08/05 02:16:35;;;;;;;9.82;7.32;;;21.30;74.20;;;;;;5024195;28;20041;-11
2022/08/05 02:19:30;;;;;;;11.13;9.05;;;21.30;74.40;;;;;;5036052;28;20026;-11
2022/08/05 02:22:21;;;;;;;7.95;7.15;;;21.20;74.70;;;;;;5035761;28;20021;-11
2022/08/05 02:24:52;;;;;;;11.82;8.57;;;21.20;74.80;;;;;;5035658;28;20032;-10
2022/08/05 02:27:20;;;;;;;10.20;8.23;;;21.20;74.50;;;;;;5035744;28;20037;-11
2022/08/05 02:29:47;;;;;;;10.13;8.20;;;21.10;74.70;;;;;;5035639;28;20028;-11
2022/08/05 02:32:17;;;;;;;10.60;7.70;;;21.10;75.10;;;;;;5035570;28;20025;-10
2022/08/05 02:34:45;;;;;;;10.43;7.85;;;21.10;75.20;;;;;;5035601;28;20037;-11
2022/08/05 02:37:13;;;;;;;8.50;6.65;;;21.10;75.50;;;;;;5035570;28;20057;-11
2022/08/05 02:39:41;;;;;;;13.57;7.32;;;21.10;75.30;;;;;;5035610;28;20056;-11
2022/08/05 02:42:08;;;;;;;11.25;8.10;;;21.00;75.40;;;;;;5035599;28;20570;-10
2022/08/05 02:44:37;;;;;;;12.52;9.15;;;21.10;75.50;;;;;;5035211;28;20063;-10
2022/08/05 02:47:09;;;;;;;12.48;7.72;;;21.00;75.40;;;;;;5035323;28;20014;-11
2022/08/05 02:49:40;;;;;;;16.67;11.38;;;21.10;75.50;;;;;;5035551;28;20029;-11
2022/08/05 02:52:10;;;;;;;15.05;12.60;;;21.00;75.60;;;;;;5035579;28;20504;-11
2022/08/05 02:54:38;;;;;;;15.05;12.23;;;21.00;76.20;;;;;;5034624;28;20057;-12
2022/08/05 02:57:10;;;;;;;15.98;10.32;;;21.00;76.10;;;;;;5035469;28;20037;-11
2022/08/05 02:59:38;;;;;;;18.17;10.93;;;21.00;76.10;;;;;;5035352;28;20474;-11
2022/08/05 03:02:06;;;;;;;10.88;8.85;;;20.90;76.20;;;;;;5035593;28;20035;-11
2022/08/05 03:04:32;;;;;;;11.18;9.95;;;21.00;76.10;;;;;;5035052;28;20021;-11
2022/08/05 03:06:58;;;;;;;11.00;9.10;;;21.00;76.10;;;;;;5034940;28;20534;-11
2022/08/05 03:09:25;;;;;;;16.02;11.88;;;21.00;76.10;;;;;;5035411;28;20022;-10
2022/08/05 03:11:51;;;;;;;14.57;11.30;;;21.00;76.20;;;;;;5035689;28;20075;-11
2022/08/05 03:14:17;;;;;;;13.25;11.05;;;21.00;76.30;;;;;;5033394;28;20381;-11
2022/08/05 03:16:43;;;;;;;12.63;9.55;;;21.00;76.40;;;;;;5034978;28;20068;-12
2022/08/05 03:19:08;;;;;;;12.52;10.50;;;21.00;76.20;;;;;;5034636;28;20040;-11
2022/08/05 03:21:34;;;;;;;13.38;10.48;;;21.00;76.20;;;;;;5035373;28;20481;-11
2022/08/05 03:24:01;;;;;;;12.32;9.15;;;21.00;76.40;;;;;;5034593;28;20477;-10
2022/08/05 03:26:27;;;;;;;12.23;10.60;;;21.00;76.30;;;;;;5034967;28;20018;-11
2022/08/05 03:28:54;;;;;;;14.95;13.35;;;21.00;76.30;;;;;;5034851;28;20041;-11
2022/08/05 03:31:20;;;;;;;12.25;10.63;;;21.00;76.40;;;;;;5034411;28;20029;-11
2022/08/05 03:33:46;;;;;;;11.82;9.35;;;21.00;76.80;;;;;;5034589;28;20032;-19
2022/08/05 03:36:12;;;;;;;10.48;8.45;;;21.00;76.60;;;;;;5034537;28;20087;-11
2022/08/05 03:38:41;;;;;;;12.35;9.55;;;21.00;76.70;;;;;;5034414;28;20362;-12
2022/08/05 03:41:07;;;;;;;11.30;9.18;;;20.90;76.60;;;;;;5034581;28;20033;-12
2022/08/05 03:43:34;;;;;;;10.98;9.57;;;20.90;76.80;;;;;;5034503;28;20428;-11
2022/08/05 03:46:01;;;;;;;12.45;11.15;;;20.90;77.10;;;;;;5034108;28;20033;-11
2022/08/05 03:48:28;;;;;;;12.15;10.05;;;20.90;77.10;;;;;;5034160;28;20370;-11
2022/08/05 03:50:58;;;;;;;13.55;9.57;;;20.90;77.30;;;;;;5034086;28;20025;-11
2022/08/05 03:53:45;;;;;;;14.85;12.82;;;20.90;77.10;;;;;;5034337;28;20026;-11
2022/08/05 03:56:26;;;;;;;15.35;10.65;;;20.90;77.20;;;;;;5033830;28;20076;-11
2022/08/05 03:58:57;;;;;;;11.18;9.75;;;20.80;77.20;;;;;;5033965;28;20112;-11
2022/08/05 04:01:25;;;;;;;12.25;9.77;;;20.80;77.10;;;;;;5034250;28;20062;-11
2022/08/05 04:03:53;;;;;;;13.50;10.32;;;20.80;77.10;;;;;;5034050;28;20512;-11
2022/08/05 04:06:19;;;;;;;14.10;11.15;;;20.80;77.10;;;;;;5033635;28;20075;-11
2022/08/05 04:08:46;;;;;;;14.75;10.20;;;20.70;77.20;;;;;;5034319;28;20049;-11
2022/08/05 04:11:12;;;;;;;14.48;10.40;;;20.70;77.30;;;;;;5034037;28;20034;-11
2022/08/05 04:13:40;;;;;;;9.70;8.15;;;20.70;77.60;;;;;;5033669;28;20040;-11
2022/08/05 04:16:11;;;;;;;12.25;8.88;;;20.70;77.40;;;;;;5033832;28;20094;-11
2022/08/05 04:18:38;;;;;;;17.50;12.27;;;20.80;77.40;;;;;;5033393;28;20107;-11
2022/08/05 04:21:06;;;;;;;15.15;12.15;;;20.70;77.50;;;;;;5033700;28;20036;-11
2022/08/05 04:23:35;;;;;;;17.15;11.90;;;20.70;77.70;;;;;;5033509;28;20030;-10
2022/08/05 04:26:01;;;;;;;12.75;10.60;;;20.70;77.90;;;;;;5033671;28;20018;-11
2022/08/05 04:28:27;;;;;;;11.50;9.43;;;20.80;77.70;;;;;;5032083;28;20025;-11
2022/08/05 04:30:53;;;;;;;11.82;9.57;;;20.80;77.60;;;;;;5033751;28;20029;-11
2022/08/05 04:33:19;;;;;;;15.00;11.00;;;20.80;77.70;;;;;;5033241;28;20034;-11
2022/08/05 04:35:45;;;;;;;21.00;14.18;;;20.90;77.60;;;;;;5033443;28;20025;-11
2022/08/05 04:38:11;;;;;;;38.33;17.42;;;20.90;77.80;;;;;;5033575;28;20033;-11
2022/08/05 04:40:39;;;;;;;24.90;15.23;;;20.90;77.70;;;;;;5033386;28;20032;-11
2022/08/05 04:43:05;;;;;;;21.27;14.93;;;20.90;77.70;;;;;;5033322;28;20025;-10
2022/08/05 04:45:32;;;;;;;18.60;14.60;;;21.00;77.80;;;;;;5033469;28;20029;-11
2022/08/05 04:48:06;;;;;;;16.65;13.55;;;21.10;77.70;;;;;;5033132;28;20489;-11
2022/08/05 04:50:38;;;;;;;14.02;11.48;;;21.30;77.60;;;;;;5032469;28;20079;-11
2022/08/05 04:53:04;;;;;;;22.73;14.88;;;21.40;77.30;;;;;;5033418;28;20098;-10
2022/08/05 04:55:30;;;;;;;25.08;17.13;;;21.40;76.90;;;;;;5032870;28;20440;-11
2022/08/05 04:57:56;;;;;;;22.42;17.15;;;21.50;76.60;;;;;;5033238;28;20052;-11
2022/08/05 05:00:22;;;;;;;69.57;25.20;;;21.70;76.70;;;;;;5032979;28;20026;-11
2022/08/05 05:02:48;;;;;;;18.33;14.90;;;21.80;76.40;;;;;;5033024;28;20377;-11
2022/08/05 05:05:13;;;;;;;19.85;16.15;;;21.90;76.20;;;;;;5031735;28;20022;-10
2022/08/05 05:07:39;;;;;;;18.85;14.02;;;22.00;75.90;;;;;;5032995;28;20029;-11
2022/08/05 05:10:06;;;;;;;26.50;17.75;;;22.10;75.60;;;;;;5033283;28;20027;-11
2022/08/05 05:12:32;;;;;;;19.45;16.42;;;22.30;75.30;;;;;;5032828;28;20484;-10
2022/08/05 05:14:58;;;;;;;16.15;12.18;;;22.40;75.00;;;;;;5032885;28;20029;-10
2022/08/05 05:17:24;;;;;;;13.80;12.30;;;22.50;74.80;;;;;;5033082;28;20025;-11
2022/08/05 05:19:56;;;;;;;28.65;17.67;;;22.60;74.30;;;;;;5032983;28;20022;-11
2022/08/05 05:22:23;;;;;;;22.45;17.60;;;22.80;74.10;;;;;;5032905;28;20025;-11
2022/08/05 05:24:49;;;;;;;20.25;15.45;;;22.90;73.80;;;;;;5033107;28;20017;-10
2022/08/05 05:27:15;;;;;;;24.52;17.27;;;23.00;73.50;;;;;;5031567;28;20022;-10
2022/08/05 05:29:41;;;;;;;23.25;16.77;;;23.20;73.20;;;;;;5033197;28;20037;-11
2022/08/05 05:32:07;;;;;;;20.92;16.25;;;23.20;72.90;;;;;;5033014;28;20140;-10
2022/08/05 05:34:33;;;;;;;18.67;15.80;;;23.40;72.60;;;;;;5032392;28;20029;-11
2022/08/05 05:36:58;;;;;;;20.33;14.98;;;23.50;72.30;;;;;;5033352;28;20026;-10
2022/08/05 05:39:24;;;;;;;16.23;14.00;;;23.60;72.00;;;;;;5036747;28;20052;-10
2022/08/05 05:41:50;;;;;;;18.15;13.82;;;23.70;71.60;;;;;;5036658;28;20037;-11
2022/08/05 05:44:16;;;;;;;15.73;11.52;;;23.90;71.40;;;;;;5036612;28;20030;-10
2022/08/05 05:46:42;;;;;;;17.65;14.27;;;23.90;71.00;;;;;;5035280;28;20526;-10
2022/08/05 05:49:08;;;;;;;17.08;12.60;;;24.10;70.70;;;;;;5036316;28;20017;-10
2022/08/05 05:51:34;;;;;;;13.65;12.25;;;24.10;70.40;;;;;;5035127;28;20031;-10
2022/08/05 05:53:59;;;;;;;15.07;13.32;;;24.30;70.10;;;;;;5034887;28;20035;-11
2022/08/05 05:56:27;;;;;;;20.45;13.88;;;24.40;69.80;;;;;;5036451;28;20037;-10
2022/08/05 05:58:53;;;;;;;15.57;11.48;;;24.50;69.60;;;;;;5036092;28;20543;-11
2022/08/05 06:01:19;;;;;;;14.90;13.32;;;24.60;69.30;;;;;;5036516;28;20029;-11
2022/08/05 06:03:45;;;;;;;19.80;12.73;;;24.70;69.00;;;;;;5036754;28;20496;-11
2022/08/05 06:06:11;;;;;;;28.08;20.77;;;24.90;68.60;;;;;;5036755;28;20034;-11
2022/08/05 06:08:37;;;;;;;24.25;18.45;;;24.90;68.40;;;;;;5036120;28;20026;-11
2022/08/05 06:11:03;;;;;;;18.35;14.27;;;25.10;68.20;;;;;;5035946;28;20032;-11
2022/08/05 06:13:29;;;;;;;19.58;14.55;;;25.20;68.00;;;;;;5036158;28;20022;-11
2022/08/05 06:15:55;;;;;;;16.23;12.65;;;25.30;67.90;;;;;;5035930;28;20030;-10
2022/08/05 06:18:21;;;;;;;17.15;13.25;;;25.40;67.60;;;;;;5035595;28;20034;-11
2022/08/05 06:20:46;;;;;;;14.68;11.30;;;25.50;67.50;;;;;;5035685;28;20025;-10
2022/08/05 06:23:12;;;;;;;13.25;9.73;;;25.50;67.20;;;;;;5036188;28;20037;-12
2022/08/05 06:25:38;;;;;;;12.05;8.82;;;25.70;66.90;;;;;;5035915;28;20382;-11
2022/08/05 06:28:04;;;;;;;12.35;9.40;;;25.80;66.60;;;;;;5035871;28;20017;-11
2022/08/05 06:30:30;;;;;;;11.32;9.45;;;25.90;66.00;;;;;;5035347;28;20578;-10
2022/08/05 06:32:56;;;;;;;8.32;7.22;;;26.00;65.30;;;;;;5035868;28;20060;-10
2022/08/05 06:35:22;;;;;;;13.77;9.15;;;26.20;65.00;;;;;;5035597;28;20588;-11
2022/08/05 06:37:48;;;;;;;11.70;7.82;;;26.30;64.50;;;;;;5035788;28;20111;-11
2022/08/05 06:40:15;;;;;;;10.07;7.57;;;26.40;64.10;;;;;;5035549;28;20060;-13
2022/08/05 06:42:41;;;;;;;13.02;9.60;;;26.50;63.70;;;;;;5035676;28;20036;-10
2022/08/05 06:45:07;;;;;;;8.57;6.53;;;26.60;63.40;;;;;;5035683;28;20034;-10
2022/08/05 06:47:33;;;;;;;13.45;8.68;;;26.90;63.10;;;;;;5035566;28;20118;-10
2022/08/05 06:49:59;;;;;;;11.45;7.80;;;26.90;62.70;;;;;;5035227;28;20069;-11
2022/08/05 06:52:25;;;;;;;11.48;8.35;;;27.20;62.20;;;;;;5034970;28;20468;-11
2022/08/05 06:54:51;;;;;;;9.18;7.22;;;27.30;61.90;;;;;;5034889;28;20059;-10
2022/08/05 06:57:17;;;;;;;6.45;5.85;;;27.40;61.50;;;;;;5035348;28;20049;-11
2022/08/05 06:59:44;;;;;;;10.68;6.60;;;27.60;61.00;;;;;;5035392;28;20025;-10
2022/08/05 07:02:10;;;;;;;8.82;6.28;;;27.90;60.80;;;;;;5035073;28;20037;-11
2022/08/05 07:04:35;;;;;;;6.90;5.72;;;28.10;60.20;;;;;;5035008;28;20029;-11
2022/08/05 07:07:02;;;;;;;10.15;7.70;;;28.20;59.50;;;;;;5035241;28;20497;-10
2022/08/05 07:09:28;;;;;;;9.02;6.95;;;28.50;59.10;;;;;;5034869;28;20101;-11
2022/08/05 07:11:55;;;;;;;11.13;7.07;;;28.60;58.00;;;;;;5035942;28;20056;-11
2022/08/05 07:17:06;;;;;;;12.15;7.13;;;29.00;57.30;;;;;;5035351;28;20385;-11
2022/08/05 07:19:32;;;;;;;7.47;6.22;;;29.10;56.20;;;;;;5034348;28;20056;-11
2022/08/05 07:21:58;;;;;;;7.57;5.07;;;29.30;55.70;;;;;;5034664;28;20032;-10
2022/08/05 07:24:24;;;;;;;6.72;5.45;;;29.40;56.00;;;;;;5034671;28;20022;-11
2022/08/05 07:26:51;;;;;;;9.30;7.03;;;29.50;55.50;;;;;;5034832;28;20016;-10
2022/08/05 07:29:17;;;;;;;8.40;6.18;;;29.50;55.10;;;;;;5035129;28;20029;-11
2022/08/05 07:31:43;;;;;;;7.18;5.40;;;29.50;55.10;;;;;;5034430;28;20041;-10
2022/08/05 07:34:09;;;;;;;9.80;5.68;;;29.70;55.20;;;;;;5034556;28;20397;-10
2022/08/05 07:36:35;;;;;;;6.97;4.78;;;29.90;55.00;;;;;;5032925;28;20025;-11
2022/08/05 07:39:03;;;;;;;8.68;4.90;;;30.20;54.50;;;;;;5035192;28;20108;-10
2022/08/05 07:41:29;;;;;;;6.80;5.32;;;30.40;53.50;;;;;;5034577;28;20033;-11
2022/08/05 07:43:56;;;;;;;6.75;4.93;;;30.70;52.60;;;;;;5034594;28;20025;-10
2022/08/05 07:46:23;;;;;;;6.28;5.07;;;30.80;52.30;;;;;;5034426;28;20026;-10
2022/08/05 07:48:49;;;;;;;5.13;4.57;;;31.00;51.40;;;;;;5034332;28;20047;-10
2022/08/05 07:51:15;;;;;;;7.25;5.07;;;31.30;51.20;;;;;;5034016;28;20474;-11
2022/08/05 07:53:42;;;;;;;8.63;5.40;;;31.50;49.90;;;;;;5034069;28;20044;-11
2022/08/05 07:56:07;;;;;;;6.88;4.53;;;31.90;49.80;;;;;;5033741;28;20515;-10
2022/08/05 07:58:33;;;;;;;5.95;4.65;;;32.00;48.90;;;;;;5034086;28;20029;-11
2022/08/05 08:00:59;;;;;;;8.07;5.38;;;32.20;48.30;;;;;;5033208;28;20068;-11
2022/08/05 08:03:25;;;;;;;8.68;5.05;;;32.40;47.90;;;;;;5034014;28;20075;-10
2022/08/05 08:05:51;;;;;;;7.28;4.78;;;32.40;47.90;;;;;;5033989;28;20426;-8
2022/08/05 08:08:17;;;;;;;7.55;5.07;;;32.40;47.80;;;;;;5033533;28;20099;-8
2022/08/05 08:10:43;;;;;;;7.00;4.50;;;32.40;47.70;;;;;;5033995;28;20096;-8
2022/08/05 08:13:10;;;;;;;6.63;4.50;;;32.50;47.00;;;;;;5034120;28;20132;-8
2022/08/05 08:15:36;;;;;;;4.68;4.15;;;32.80;45.70;;;;;;5033555;28;20030;-8
2022/08/05 08:18:02;;;;;;;4.90;3.92;;;33.20;45.50;;;;;;5033770;28;20028;-8
2022/08/05 08:20:28;;;;;;;4.32;3.88;;;33.60;44.40;;;;;;5033551;28;20027;-9
2022/08/05 08:22:58;;;;;;;5.65;4.10;;;34.10;43.00;;;;;;5033765;28;20123;-9
2022/08/05 08:25:25;;;;;;;5.57;4.10;;;34.50;42.40;;;;;;5033488;28;20473;-8
2022/08/05 08:27:51;;;;;;;5.43;4.18;;;34.90;41.20;;;;;;5033744;28;20040;-8
2022/08/05 08:30:17;;;;;;;4.53;3.88;;;35.20;40.00;;;;;;5033482;28;20038;-8
2022/08/05 08:32:43;;;;;;;6.07;3.92;;;35.50;39.30;;;;;;5033916;28;20025;-10
2022/08/05 08:35:09;;;;;;;4.80;3.67;;;35.70;38.60;;;;;;5033173;28;20079;-11
2022/08/05 08:37:35;;;;;;;5.78;3.83;;;35.90;38.40;;;;;;5033657;28;20032;-10
2022/08/05 08:40:02;;;;;;;6.03;3.83;;;36.20;37.50;;;;;;5033899;28;20036;-11
2022/08/05 08:42:28;;;;;;;5.07;3.67;;;36.40;37.40;;;;;;5033327;28;20126;-11
2022/08/05 08:44:56;;;;;;;5.68;3.50;;;36.60;37.40;;;;;;5034037;28;20033;-10
2022/08/05 08:47:25;;;;;;;3.83;3.30;;;36.70;36.80;;;;;;5033520;28;20366;-10
2022/08/05 08:49:53;;;;;;;4.93;3.55;;;36.80;36.50;;;;;;5033359;28;20041;-11
2022/08/05 08:52:30;;;;;;;5.05;3.63;;;36.90;36.40;;;;;;5033046;28;20017;-11
2022/08/05 08:54:56;;;;;;;5.30;3.33;;;36.70;35.10;;;;;;5032865;28;20049;-10
2022/08/05 08:57:23;;;;;;;4.05;3.50;;;36.60;36.50;;;;;;5033005;28;20034;-10
2022/08/05 08:59:50;;;;;;;3.92;3.30;;;36.80;36.20;;;;;;5033043;28;20072;-10
2022/08/05 09:02:19;;;;;;;6.05;3.33;;;37.00;36.20;;;;;;5033171;28;20056;-10
2022/08/05 09:04:45;;;;;;;3.80;3.30;;;37.20;35.00;;;;;;5033029;28;20489;-11
2022/08/05 09:07:12;;;;;;;4.05;3.58;;;37.30;34.90;;;;;;5033272;28;20033;-10
2022/08/05 09:09:38;;;;;;;5.82;3.20;;;37.20;34.10;;;;;;5032985;28;20030;-10
2022/08/05 09:12:08;;;;;;;4.78;3.65;;;37.00;34.00;;;;;;5035430;28;20030;-10
2022/08/05 09:14:36;;;;;;;4.43;3.33;;;36.90;34.30;;;;;;5037139;28;20033;-10
2022/08/05 09:17:05;;;;;;;7.18;3.40;;;37.10;34.20;;;;;;5037277;28;20567;-11
2022/08/05 09:19:32;;;;;;;3.22;2.92;;;37.30;34.20;;;;;;5036866;28;20033;-10
2022/08/05 09:21:58;;;;;;;5.65;3.10;;;37.50;34.20;;;;;;5036913;28;20071;-10
2022/08/05 09:24:24;;;;;;;3.50;3.20;;;37.80;33.80;;;;;;5036708;28;20022;-11
2022/08/05 09:26:52;;;;;;;5.15;3.35;;;38.20;32.20;;;;;;5035628;28;20108;-9
2022/08/05 09:29:18;;;;;;;3.55;3.10;;;38.50;31.80;;;;;;5037062;28;20029;-10
2022/08/05 09:32:02;;;;;;;3.60;3.30;;;38.90;30.20;;;;;;5036989;28;20477;-11
2022/08/05 09:34:54;;;;;;;3.40;3.10;;;39.10;30.10;;;;;;5036455;28;20029;-10
2022/08/05 09:37:21;;;;;;;;;;;39.30;30.40;;;;;;5037141;28;20397;-10
2022/08/05 09:39:47;;;;;;;3.53;3.10;;;39.20;30.40;;;;;;5036922;28;20047;-11
2022/08/05 09:42:18;;;;;;;4.70;3.10;;;38.90;31.30;;;;;;5036828;28;20479;-10
2022/08/05 09:44:47;;;;;;;6.22;3.35;;;38.90;30.90;;;;;;5036480;28;20484;-10
2022/08/05 09:47:22;;;;;;;5.45;3.10;;;38.90;31.40;;;;;;5036459;28;20034;-11
2022/08/05 09:49:50;;;;;;;5.50;3.15;;;39.20;31.20;;;;;;5036755;28;20022;-10
2022/08/05 09:52:28;;;;;;;3.97;3.10;;;39.50;30.00;;;;;;5036308;28;20104;-11
2022/08/05 09:54:55;;;;;;;4.50;2.80;;;39.70;30.20;;;;;;5036510;28;20115;-10
2022/08/05 09:57:31;;;;;;;5.22;3.20;;;39.80;30.30;;;;;;5036205;28;20037;-10
2022/08/05 10:00:12;;;;;;;3.65;3.20;;;40.00;29.80;;;;;;5036061;28;20049;-11
2022/08/05 10:02:38;;;;;;;5.00;2.92;;;40.20;29.40;;;;;;5036346;28;20075;-10
2022/08/05 10:05:11;;;;;;;4.20;2.90;;;40.30;29.00;;;;;;5036287;28;20112;-8
2022/08/05 10:08:13;;;;;;;3.60;3.25;;;40.30;29.10;;;;;;5036102;28;20053;-8
2022/08/05 10:10:50;;;;;;;4.93;3.10;;;40.40;28.60;;;;;;4994938;28;20042;-10
2022/08/05 10:13:27;;;;;;;5.30;3.00;;;40.20;29.00;;;;;;4995218;28;20360;-10
2022/08/05 10:15:53;;;;;;;3.67;3.17;;;40.30;28.30;;;;;;4994648;28;20184;-10
2022/08/05 10:18:21;;;;;;;3.10;2.80;;;40.50;27.80;;;;;;4994272;28;20041;-10
2022/08/05 10:20:53;;;;;;;4.18;3.10;;;40.70;27.70;;;;;;4994410;28;20042;-10
2022/08/05 10:23:26;;;;;;;3.97;2.90;;;40.90;27.80;;;;;;4993737;28;20391;-10
2022/08/05 10:25:55;;;;;;;5.13;2.70;;;41.10;27.80;;;;;;4994626;28;20261;-10
2022/08/05 10:28:21;;;;;;;3.13;2.85;;;41.40;28.20;;;;;;4994222;28;20137;-10
2022/08/05 10:30:47;;;;;;;3.20;2.88;;;41.70;27.70;;;;;;4994270;28;20034;-10
2022/08/05 10:33:13;;;;;;;3.13;2.83;;;42.00;26.50;;;;;;4994237;28;20018;-10
2022/08/05 10:35:40;;;;;;;2.97;2.70;;;42.20;26.20;;;;;;4994040;28;20461;-10
2022/08/05 10:38:07;;;;;;;5.32;3.00;;;42.40;26.40;;;;;;4994151;28;20030;-8
2022/08/05 10:40:52;;;;;;;3.47;2.63;;;42.40;26.20;;;;;;4994110;28;20043;-9
2022/08/05 10:43:44;;;;;;;5.35;3.10;;;42.40;26.20;;;;;;4994018;28;20030;-9
2022/08/05 10:46:13;;;;;;;4.83;3.00;;;42.60;25.80;;;;;;4992022;28;20033;-8
2022/08/05 10:48:44;;;;;;;3.10;2.83;;;42.90;25.80;;;;;;5035621;28;20083;-9
2022/08/05 10:51:16;;;;;;;5.55;3.10;;;43.10;25.30;;;;;;5035237;28;20436;-8
2022/08/05 10:53:58;;;;;;;;;;;43.30;25.20;;;;;;5035949;28;20025;-8
2022/08/05 10:56:56;;;;;;;3.30;3.00;;;43.20;25.00;;;;;;5035010;28;20020;-8
2022/08/05 10:59:28;;;;;;;3.65;3.03;;;43.00;25.70;;;;;;5034791;28;20400;-8
2022/08/05 11:02:14;;;;;;;5.07;2.90;;;43.00;25.40;;;;;;5035232;28;20079;-9
2022/08/05 11:04:47;;;;;;;5.38;2.95;;;43.10;25.20;;;;;;5035310;28;20021;-9
2022/08/05 11:07:17;;;;;;;4.90;2.90;;;43.20;25.60;;;;;;5035154;28;20389;-9
2022/08/05 11:09:46;;;;;;;4.28;3.00;;;43.40;25.70;;;;;;5035203;28;20385;-9
2022/08/05 11:12:40;;;;;;;6.72;3.17;;;43.60;25.60;;;;;;5035174;28;20461;-9
2022/08/05 11:15:18;;;;;;;4.38;2.78;;;43.90;24.60;;;;;;5035616;28;20136;-9
2022/08/05 11:17:46;;;;;;;4.55;3.00;;;44.10;24.90;;;;;;5035117;28;20436;-9
2022/08/05 11:20:31;;;;;;;3.80;3.13;;;44.20;24.90;;;;;;5034935;28;20501;-8
2022/08/05 11:22:58;;;;;;;4.82;2.83;;;44.40;24.00;;;;;;5034972;28;20076;-9
2022/08/05 11:25:29;;;;;;;3.03;2.83;;;44.50;25.00;;;;;;5034739;28;20026;-9
2022/08/05 11:28:10;;;;;;;;;;;44.60;25.20;;;;;;5034983;28;20026;-8
2022/08/05 11:30:55;;;;;;;4.40;3.00;;;44.90;24.70;;;;;;5034277;28;19968;-8
2022/08/05 11:33:27;;;;;;;6.20;3.10;;;45.10;23.50;;;;;;5034903;28;20064;-8
2022/08/05 11:35:55;;;;;;;4.07;2.70;;;44.70;23.90;;;;;;5033469;28;20037;-8
2022/08/05 11:38:40;;;;;;;2.78;2.58;;;44.40;24.50;;;;;;5034147;28;20038;-9
2022/08/05 11:41:23;;;;;;;3.00;2.80;;;44.50;24.00;;;;;;5034616;28;20021;-9
2022/08/05 11:44:09;;;;;;;3.20;2.83;;;44.70;24.60;;;;;;5034311;28;20500;-8
2022/08/05 11:46:46;;;;;;;3.58;3.00;;;45.10;23.20;;;;;;5034361;28;20116;-9
2022/08/05 11:49:15;;;;;;;3.45;2.95;;;45.40;23.40;;;;;;5034229;28;20034;-8
2022/08/05 11:51:43;;;;;;;2.90;2.70;;;45.50;23.20;;;;;;5034329;28;20382;-8
2022/08/05 11:54:11;;;;;;;3.22;2.60;;;45.60;23.30;;;;;;5034093;28;20025;-8
2022/08/05 11:56:48;;;;;;;2.97;2.70;;;45.90;23.10;;;;;;5033823;28;20571;-9
2022/08/05 11:59:19;;;;;;;3.17;2.88;;;46.00;22.90;;;;;;5034282;28;20049;-8
2022/08/05 12:02:11;;;;;;;5.50;2.80;;;46.10;23.30;;;;;;5034012;28;20112;-9
2022/08/05 12:04:43;;;;;;;4.60;2.72;;;46.40;22.90;;;;;;5031594;28;20501;-9
2022/08/05 12:07:11;;;;;;;4.13;2.90;;;46.50;23.10;;;;;;5034690;28;20558;-9
2022/08/05 12:09:40;;;;;;;4.43;2.63;;;46.50;22.90;;;;;;5033811;28;20030;-8
2022/08/05 12:12:07;;;;;;;3.95;3.10;;;46.20;23.20;;;;;;5033852;28;20021;-8
2022/08/05 12:14:41;;;;;;;3.83;2.88;;;46.10;23.20;;;;;;5033561;28;20025;-9
2022/08/05 12:17:12;;;;;;;2.95;2.75;;;46.10;23.00;;;;;;5033975;28;20026;-8
2022/08/05 12:19:52;;;;;;;3.03;2.80;;;46.40;23.10;;;;;;5033866;28;20048;-8
2022/08/05 12:22:20;;;;;;;4.13;3.13;;;46.70;22.80;;;;;;5032229;28;20018;-9
2022/08/05 12:24:54;;;;;;;4.13;3.10;;;46.40;23.00;;;;;;5033534;28;20030;-9
2022/08/05 12:27:31;;;;;;;6.97;3.15;;;46.00;22.70;;;;;;5033582;28;20025;-9
2022/08/05 12:30:05;;;;;;;3.72;3.15;;;44.50;23.40;;;;;;5033853;28;20044;-8
2022/08/05 12:32:34;;;;;;;4.70;2.90;;;43.50;24.70;;;;;;5032404;28;20029;-8
2022/08/05 12:35:05;;;;;;;4.78;2.95;;;43.10;25.40;;;;;;5033502;28;20029;-8
2022/08/05 12:37:31;;;;;;;7.60;3.35;;;43.00;25.30;;;;;;5034436;28;20327;-10
2022/08/05 12:39:57;;;;;;;9.35;3.20;;;43.10;25.50;;;;;;5033368;28;20079;-10
2022/08/05 12:42:29;;;;;;;3.45;3.13;;;43.30;25.50;;;;;;5031757;28;20079;-10
2022/08/05 12:45:12;;;;;;;3.63;3.30;;;43.70;25.00;;;;;;5033692;28;20048;-18
2022/08/05 12:47:40;;;;;;;4.82;3.30;;;43.90;24.50;;;;;;5032867;28;20030;-11
2022/08/05 12:50:16;;;;;;;4.35;3.40;;;43.80;24.60;;;;;;5033353;28;20026;-11
2022/08/05 12:52:58;;;;;;;4.03;3.30;;;43.50;24.20;;;;;;5033455;28;20469;-10
2022/08/05 12:55:27;;;;;;;5.85;3.45;;;43.00;24.80;;;;;;5032909;28;20092;-11
2022/08/05 12:57:56;;;;;;;4.97;3.30;;;42.90;25.20;;;;;;5033328;28;20409;-10
2022/08/05 13:00:28;;;;;;;3.83;2.90;;;42.60;25.60;;;;;;5033448;28;20040;-10